createdAt,value
2023-01-03T00:02:51.424Z,11.10
2023-01-03T00:06:53.658Z,11.10
2023-01-03T00:10:55.404Z,11.20
2023-01-03T00:14:56.780Z,11.20
2023-01-03T00:18:58.183Z,11.30
2023-01-03T00:23:01.546Z,11.20
2023-01-03T00:27:03.207Z,11.30
2023-01-03T00:31:06.861Z,11.20
2023-01-03T00:35:09.208Z,11.30
2023-01-03T00:39:13.810Z,11.10
2023-01-03T00:43:30.350Z,11.20
2023-01-03T00:47:31.906Z,11.20
2023-01-03T00:51:36.490Z,11.10
2023-01-03T00:55:40.590Z,11.00
2023-01-03T00:59:41.755Z,11.00
2023-01-03T01:03:46.792Z,11.20
2023-01-03T01:07:47.904Z,11.10
2023-01-03T01:11:49.884Z,10.90
2023-01-03T01:15:51.082Z,11.00
2023-01-03T01:19:52.216Z,11.00
2023-01-03T01:23:54.719Z,11.00
2023-01-03T01:27:55.867Z,11.10
2023-01-03T01:31:57.053Z,10.90
2023-01-03T01:35:58.637Z,10.90
2023-01-03T01:40:04.161Z,10.80
2023-01-03T01:44:26.533Z,10.70
2023-01-03T01:48:33.478Z,10.70
2023-01-03T01:52:42.055Z,10.60
2023-01-03T01:56:53.595Z,10.60
2023-01-03T02:01:16.099Z,10.70
2023-01-03T02:05:21.566Z,10.70
2023-01-03T02:09:25.501Z,10.70
2023-01-03T02:13:51.360Z,10.70
2023-01-03T02:18:13.121Z,10.70
2023-01-03T02:22:29.704Z,10.80
2023-01-03T02:26:40.624Z,10.80
2023-01-03T02:31:06.720Z,10.60
2023-01-03T02:35:26.517Z,10.60
2023-01-03T02:39:41.573Z,10.60
2023-01-03T02:44:01.801Z,10.60
2023-01-03T02:48:19.385Z,10.50
2023-01-03T02:52:24.394Z,10.60
2023-01-03T02:56:34.959Z,10.40
2023-01-03T03:00:40.716Z,10.50
2023-01-03T03:04:44.418Z,10.50
2023-01-03T03:08:48.212Z,10.60
2023-01-03T03:13:11.901Z,10.60
2023-01-03T03:17:16.839Z,10.30
2023-01-03T03:21:38.731Z,10.60
2023-01-03T03:25:46.319Z,10.70
2023-01-03T03:29:47.778Z,10.50
2023-01-03T03:33:52.748Z,10.30
2023-01-03T03:37:56.281Z,10.10
2023-01-03T03:42:34.711Z,10.20
2023-01-03T03:46:47.740Z,10.20
2023-01-03T03:50:55.957Z,10.00
2023-01-03T03:55:00.900Z,10.10
2023-01-03T03:59:05.785Z,10.30
2023-01-03T04:03:09.964Z,10.30
2023-01-03T04:07:11.368Z,10.30
2023-01-03T04:11:12.542Z,10.30
2023-01-03T04:15:14.288Z,10.20
2023-01-03T04:19:15.438Z,10.20
2023-01-03T04:23:16.591Z,10.20
2023-01-03T04:27:17.844Z,10.10
2023-01-03T04:31:19.102Z,10.10
2023-01-03T04:35:20.314Z,10.00
2023-01-03T04:39:21.474Z,10.00
2023-01-03T04:43:41.193Z,9.90
2023-01-03T04:47:42.258Z,9.90
2023-01-03T04:51:43.431Z,9.90
2023-01-03T04:55:48.720Z,9.90
2023-01-03T04:59:49.889Z,9.70
2023-01-03T05:03:51.354Z,9.70
2023-01-03T05:07:52.508Z,9.60
2023-01-03T05:11:53.961Z,9.60
2023-01-03T05:15:55.189Z,9.70
2023-01-03T05:20:16.137Z,9.70
2023-01-03T05:24:37.314Z,9.70
2023-01-03T05:28:39.638Z,9.60
2023-01-03T05:32:40.821Z,9.40
2023-01-03T05:36:42.092Z,9.40
2023-01-03T05:40:43.728Z,9.30
2023-01-03T05:44:44.904Z,9.30
2023-01-03T05:48:46.060Z,9.30
2023-01-03T05:52:48.205Z,9.20
2023-01-03T05:56:50.465Z,9.20
2023-01-03T06:00:51.648Z,9.10
2023-01-03T06:04:52.901Z,9.00
2023-01-03T06:08:54.156Z,8.90
2023-01-03T06:12:55.924Z,8.90
2023-01-03T06:17:15.630Z,8.70
2023-01-03T06:21:16.871Z,8.60
2023-01-03T06:25:18.140Z,8.60
2023-01-03T06:29:19.298Z,8.60
2023-01-03T06:33:20.448Z,8.50
2023-01-03T06:37:21.651Z,8.50
2023-01-03T06:41:22.792Z,8.50
2023-01-03T06:45:42.412Z,8.40
2023-01-03T06:50:04.180Z,8.30
2023-01-03T06:54:07.470Z,8.20
2023-01-03T06:58:08.912Z,8.20
2023-01-03T07:02:10.139Z,8.20
2023-01-03T07:06:11.314Z,8.10
2023-01-03T07:10:13.388Z,8.20
2023-01-03T07:14:14.616Z,8.20
2023-01-03T07:18:15.690Z,8.20
2023-01-03T07:22:16.978Z,8.10
2023-01-03T07:26:18.287Z,8.20
2023-01-03T07:30:19.401Z,8.20
2023-01-03T07:34:20.569Z,8.20
2023-01-03T07:38:21.707Z,8.10
2023-01-03T07:42:41.456Z,8.10
2023-01-03T07:46:42.662Z,8.10
2023-01-03T07:50:43.871Z,8.10
2023-01-03T07:54:45.034Z,8.10
2023-01-03T07:58:46.791Z,8.10
2023-01-03T08:02:48.046Z,8.30
2023-01-03T08:06:49.291Z,8.40
2023-01-03T08:11:09.314Z,8.40
2023-01-03T08:15:10.571Z,8.60
2023-01-03T08:19:11.789Z,8.60
2023-01-03T08:23:13.460Z,9.10
2023-01-03T08:27:14.724Z,9.20
2023-01-03T08:31:19.001Z,9.10
2023-01-03T08:35:22.621Z,9.30
2023-01-03T08:39:27.569Z,9.30
2023-01-03T08:43:32.545Z,9.40
2023-01-03T08:47:35.013Z,9.30
2023-01-03T08:51:36.240Z,9.50
2023-01-03T08:55:37.405Z,9.70
2023-01-03T08:59:39.166Z,9.80
2023-01-03T09:03:40.451Z,10.10
2023-01-03T09:07:42.685Z,10.40
2023-01-03T09:11:44.424Z,10.60
2023-01-03T09:15:45.578Z,11.00
2023-01-03T09:19:47.513Z,11.40
2023-01-03T09:23:48.668Z,11.60
2023-01-03T09:27:49.823Z,11.80
2023-01-03T09:31:51.461Z,12.20
2023-01-03T09:35:54.237Z,12.30
2023-01-03T09:39:55.386Z,12.60
2023-01-03T09:44:00.348Z,12.70
2023-01-03T09:48:03.434Z,12.90
2023-01-03T09:52:23.130Z,13.10
2023-01-03T09:56:42.827Z,12.90
2023-01-03T10:01:06.333Z,13.00
2023-01-03T10:05:37.374Z,13.00
2023-01-03T10:09:45.283Z,13.10
2023-01-03T10:14:11.382Z,13.50
2023-01-03T10:18:31.415Z,13.60
2023-01-03T10:22:33.168Z,13.60
2023-01-03T10:26:34.417Z,13.50
2023-01-03T10:31:00.751Z,13.50
2023-01-03T10:35:23.299Z,13.60
2023-01-03T10:39:30.582Z,13.60
2023-01-03T10:43:40.648Z,13.40
2023-01-03T10:47:42.520Z,13.70
2023-01-03T10:51:56.784Z,13.70
2023-01-03T10:56:00.263Z,13.30
2023-01-03T11:00:01.713Z,13.60
2023-01-03T11:04:14.852Z,13.50
2023-01-03T11:08:21.860Z,13.60
2023-01-03T11:12:30.117Z,13.70
2023-01-03T11:16:31.751Z,13.80
2023-01-03T11:21:09.804Z,13.40
2023-01-03T11:25:35.774Z,13.80
2023-01-03T11:29:49.442Z,13.70
2023-01-03T11:33:57.488Z,14.10
2023-01-03T11:38:05.517Z,14.10
2023-01-03T11:42:44.422Z,13.80
2023-01-03T11:47:04.861Z,12.90
2023-01-03T11:51:19.008Z,13.10
2023-01-03T11:55:44.025Z,13.60
2023-01-03T11:59:58.330Z,13.50
2023-01-03T12:04:14.512Z,13.60
2023-01-03T12:08:47.411Z,13.50
2023-01-03T12:13:21.460Z,13.30
2023-01-03T12:17:37.320Z,13.60
2023-01-03T12:21:42.517Z,13.00
2023-01-03T12:25:56.466Z,12.70
2023-01-03T12:30:26.068Z,12.80
2023-01-03T12:34:37.143Z,13.10
2023-01-03T12:38:42.087Z,13.00
2023-01-03T12:42:55.428Z,13.00
2023-01-03T12:47:05.184Z,12.90
2023-01-03T12:51:16.826Z,12.70
2023-01-03T12:55:29.816Z,12.80
2023-01-03T13:00:11.788Z,12.50
2023-01-03T13:04:23.941Z,12.30
2023-01-03T13:08:42.057Z,12.30
2023-01-03T13:12:58.473Z,13.20
2023-01-03T13:17:15.931Z,13.40
2023-01-03T13:21:55.538Z,13.70
2023-01-03T13:26:21.655Z,12.90
2023-01-03T13:30:33.257Z,12.30
2023-01-03T13:34:39.686Z,12.40
2023-01-03T13:38:46.994Z,12.40
2023-01-03T13:43:11.233Z,12.00
2023-01-03T13:47:37.543Z,12.00
2023-01-03T13:51:45.840Z,12.10
2023-01-03T13:56:05.978Z,12.30
2023-01-03T14:00:14.531Z,12.00
2023-01-03T14:04:25.993Z,12.20
2023-01-03T14:08:37.233Z,12.30
2023-01-03T14:13:14.138Z,11.90
2023-01-03T14:17:22.894Z,12.00
2023-01-03T14:21:27.993Z,12.00
2023-01-03T14:25:38.903Z,12.10
2023-01-03T14:30:03.859Z,12.00
2023-01-03T14:34:24.073Z,12.00
2023-01-03T14:38:42.531Z,11.80
2023-01-03T14:42:52.492Z,12.00
2023-01-03T14:47:06.473Z,11.90
2023-01-03T14:51:39.215Z,12.00
2023-01-03T14:55:44.748Z,11.80
2023-01-03T15:00:03.568Z,12.30
2023-01-03T15:04:16.485Z,12.20
2023-01-03T15:08:27.080Z,11.90
2023-01-03T15:12:31.115Z,11.90
2023-01-03T15:16:39.131Z,11.90
2023-01-03T15:20:43.712Z,11.90
2023-01-03T15:24:47.456Z,11.60
2023-01-03T15:28:52.317Z,11.90
2023-01-03T15:33:00.204Z,12.00
2023-01-03T15:37:19.491Z,11.90
2023-01-03T15:41:46.093Z,11.60
2023-01-03T15:46:03.082Z,11.80
2023-01-03T15:50:06.051Z,11.60
2023-01-03T15:54:13.514Z,11.50
2023-01-03T15:58:14.660Z,11.00
2023-01-03T16:02:17.773Z,11.00
2023-01-03T16:06:20.601Z,10.90
2023-01-03T16:10:21.855Z,10.90
2023-01-03T16:14:26.949Z,10.90
2023-01-03T16:18:34.490Z,10.90
2023-01-03T16:22:36.842Z,10.80
2023-01-03T16:26:38.643Z,10.70
2023-01-03T16:30:39.929Z,10.60
2023-01-03T16:34:41.080Z,10.70
2023-01-03T16:38:42.313Z,10.40
2023-01-03T16:42:43.596Z,10.20
2023-01-03T16:46:44.780Z,10.10
2023-01-03T16:50:46.917Z,10.20
2023-01-03T16:54:49.361Z,10.10
2023-01-03T16:58:51.111Z,10.10
2023-01-03T17:02:54.593Z,10.00
2023-01-03T17:06:56.031Z,10.00
2023-01-03T17:10:57.870Z,10.00
2023-01-03T17:14:59.047Z,9.80
2023-01-03T17:19:00.191Z,9.90
2023-01-03T17:23:01.382Z,10.00
2023-01-03T17:27:03.761Z,9.90
2023-01-03T17:31:04.869Z,10.00
2023-01-03T17:35:09.913Z,10.20
2023-01-03T17:39:11.660Z,10.30
2023-01-03T17:43:19.325Z,10.30
2023-01-03T17:47:40.752Z,10.20
2023-01-03T17:51:41.800Z,10.20
2023-01-03T17:55:44.185Z,10.20
2023-01-03T17:59:45.344Z,10.40
2023-01-03T18:03:47.989Z,10.40
2023-01-03T18:07:49.369Z,10.50
2023-01-03T18:11:51.324Z,10.50
2023-01-03T18:15:53.724Z,10.30
2023-01-03T18:19:56.231Z,10.10
2023-01-03T18:24:01.216Z,10.20
2023-01-03T18:28:02.703Z,10.10
2023-01-03T18:32:16.380Z,10.00
2023-01-03T18:36:28.709Z,10.00
2023-01-03T18:40:30.046Z,10.00
2023-01-03T18:44:31.621Z,9.90
2023-01-03T18:48:32.770Z,9.80
2023-01-03T18:52:39.717Z,9.80
2023-01-03T18:56:43.001Z,9.70
2023-01-03T19:00:45.803Z,9.80
2023-01-03T19:04:51.378Z,9.90
2023-01-03T19:08:51.259Z,10.10
2023-01-03T19:12:55.026Z,9.90
2023-01-03T19:16:56.206Z,9.90
2023-01-03T19:20:57.286Z,9.80
2023-01-03T19:25:01.656Z,9.70
2023-01-03T19:29:05.434Z,9.50
2023-01-03T19:33:10.367Z,9.50
2023-01-03T19:37:11.731Z,9.60
2023-01-03T19:41:19.115Z,9.50
2023-01-03T19:45:27.410Z,9.40
2023-01-03T19:49:28.554Z,9.70
2023-01-03T19:53:32.165Z,9.50
2023-01-03T19:57:33.981Z,9.60
2023-01-03T20:01:58.285Z,9.60
2023-01-03T20:05:39.425Z,9.70
2023-01-03T20:09:40.690Z,9.60
2023-01-03T20:13:42.159Z,9.50
2023-01-03T20:17:43.307Z,9.50
2023-01-03T20:21:46.105Z,9.50
2023-01-03T20:25:48.863Z,9.40
2023-01-03T20:29:50.034Z,9.40
2023-01-03T20:33:54.018Z,9.20
2023-01-03T20:37:57.389Z,9.20
2023-01-03T20:42:03.520Z,9.10
2023-01-03T20:46:02.402Z,9.00
2023-01-03T20:50:19.450Z,8.90
2023-01-03T20:54:20.601Z,8.80
2023-01-03T20:58:26.989Z,9.20
2023-01-03T21:02:28.289Z,9.30
2023-01-03T21:06:33.615Z,9.40
2023-01-03T21:10:40.857Z,9.30
2023-01-03T21:14:42.072Z,9.40
2023-01-03T21:18:43.377Z,9.20
2023-01-03T21:22:44.762Z,9.40
2023-01-03T21:26:46.100Z,9.30
2023-01-03T21:30:47.303Z,9.40
2023-01-03T21:34:48.480Z,9.50
2023-01-03T21:38:52.905Z,9.30
2023-01-03T21:43:03.792Z,9.40
2023-01-03T21:47:02.412Z,9.50
2023-01-03T21:51:04.638Z,9.20
2023-01-03T21:55:07.057Z,9.50
2023-01-03T21:59:08.275Z,9.40
2023-01-03T22:03:32.725Z,9.40
2023-01-03T22:07:34.042Z,9.40
2023-01-03T22:11:35.205Z,9.20
2023-01-03T22:15:38.273Z,9.20
2023-01-03T22:19:39.552Z,9.20
2023-01-03T22:23:40.928Z,9.20
2023-01-03T22:27:43.685Z,9.20
2023-01-03T22:31:46.391Z,9.50
2023-01-03T22:35:47.621Z,9.40
2023-01-03T22:39:48.801Z,9.40
2023-01-03T22:43:51.676Z,9.40
2023-01-03T22:47:52.863Z,9.40
2023-01-03T22:51:54.034Z,9.40
2023-01-03T22:55:55.318Z,9.40
2023-01-03T22:59:56.501Z,9.30
2023-01-03T23:04:00.208Z,9.40
2023-01-03T23:08:01.683Z,9.40
2023-01-03T23:12:21.937Z,9.40
2023-01-03T23:16:23.116Z,9.40
2023-01-03T23:20:27.251Z,9.30
2023-01-03T23:24:28.443Z,9.40
2023-01-03T23:28:30.477Z,9.30
2023-01-03T23:32:32.236Z,9.40
2023-01-03T23:36:33.820Z,9.20
2023-01-03T23:40:40.364Z,9.30
2023-01-03T23:44:41.549Z,9.20
2023-01-03T23:48:42.671Z,9.00
2023-01-03T23:52:43.851Z,9.00
2023-01-03T23:56:45.000Z,8.90
